sensor_id;sensor_type;location;lat;lon;timestamp;pressure;altitude;pressure_sealevel;temperature;humidity
10587;BME280;5341;47.606;7.576;2024-01-11T12:37:35;99801.97;;;-0.42;77.74
10587;BME280;5341;47.606;7.576;2024-01-11T12:40:04;99803.59;;;-0.25;77.74
10587;BME280;5341;47.606;7.576;2024-01-11T12:42:34;99803.41;;;-0.06;77.34
10587;BME280;5341;47.606;7.576;2024-01-11T12:45:03;99797.91;;;0.13;77.29
10587;BME280;5341;47.606;7.576;2024-01-11T12:47:31;99793.97;;;0.34;76.81
10587;BME280;5341;47.606;7.576;2024-01-11T12:49:58;99788.56;;;0.51;76.84
10587;BME280;5341;47.606;7.576;2024-01-11T12:52:26;99798.78;;;0.70;76.37
10587;BME280;5341;47.606;7.576;2024-01-11T12:54:57;99800.50;;;0.85;75.57
10587;BME280;5341;47.606;7.576;2024-01-11T12:57:25;99786.38;;;1.01;74.99
10587;BME280;5341;47.606;7.576;2024-01-11T13:00:09;99785.50;;;1.14;74.73
10587;BME280;5341;47.606;7.576;2024-01-11T13:02:37;99785.75;;;1.24;74.29
10587;BME280;5341;47.606;7.576;2024-01-11T13:05:06;99785.25;;;1.32;73.90
10587;BME280;5341;47.606;7.576;2024-01-11T13:07:34;99783.81;;;1.40;73.11
10587;BME280;5341;47.606;7.576;2024-01-11T13:10:05;99792.19;;;1.47;72.84
10587;BME280;5341;47.606;7.576;2024-01-11T13:12:32;99796.09;;;1.54;72.47
10587;BME280;5341;47.606;7.576;2024-01-11T13:15:00;99795.72;;;1.60;72.08
10587;BME280;5341;47.606;7.576;2024-01-11T13:17:40;99792.66;;;1.66;71.79
10587;BME280;5341;47.606;7.576;2024-01-11T13:20:27;99799.44;;;1.70;71.46
10587;BME280;5341;47.606;7.576;2024-01-11T13:23:11;99801.66;;;1.76;71.43
10587;BME280;5341;47.606;7.576;2024-01-11T13:25:41;99811.16;;;1.79;71.09
10587;BME280;5341;47.606;7.576;2024-01-11T13:28:08;99815.38;;;1.82;70.88
10587;BME280;5341;47.606;7.576;2024-01-11T13:30:37;99808.41;;;1.81;70.66
10587;BME280;5341;47.606;7.576;2024-01-11T13:33:08;99818.91;;;1.82;70.25
10587;BME280;5341;47.606;7.576;2024-01-11T13:35:36;99816.16;;;1.84;69.92
10587;BME280;5341;47.606;7.576;2024-01-11T13:38:05;99816.03;;;1.85;70.20
10587;BME280;5341;47.606;7.576;2024-01-11T13:40:32;99812.47;;;1.86;69.96
10587;BME280;5341;47.606;7.576;2024-01-11T13:43:01;99815.94;;;1.87;69.59
10587;BME280;5341;47.606;7.576;2024-01-11T13:45:29;99827.22;;;1.89;69.34
10587;BME280;5341;47.606;7.576;2024-01-11T13:47:57;99820.25;;;1.88;69.33
10587;BME280;5341;47.606;7.576;2024-01-11T13:50:25;99822.81;;;1.89;69.35
10587;BME280;5341;47.606;7.576;2024-01-11T13:52:53;99816.56;;;1.90;69.54
10587;BME280;5341;47.606;7.576;2024-01-11T13:55:20;99812.88;;;1.93;69.54
10587;BME280;5341;47.606;7.576;2024-01-11T13:57:48;99813.66;;;1.95;69.05
10587;BME280;5341;47.606;7.576;2024-01-11T14:00:19;99824.00;;;1.98;68.94
10587;BME280;5341;47.606;7.576;2024-01-11T14:02:47;99821.25;;;1.99;68.71
10587;BME280;5341;47.606;7.576;2024-01-11T14:05:15;99818.50;;;2.01;69.13
10587;BME280;5341;47.606;7.576;2024-01-11T14:07:44;99820.94;;;2.04;68.79
10587;BME280;5341;47.606;7.576;2024-01-11T14:10:12;99815.53;;;2.05;68.57
10587;BME280;5341;47.606;7.576;2024-01-11T14:12:41;99805.09;;;2.04;68.54
10587;BME280;5341;47.606;7.576;2024-01-11T14:15:09;99813.00;;;2.04;68.76
10587;BME280;5341;47.606;7.576;2024-01-11T14:17:40;99808.59;;;2.04;68.57
10587;BME280;5341;47.606;7.576;2024-01-11T14:20:09;99808.59;;;2.04;68.66
10587;BME280;5341;47.606;7.576;2024-01-11T14:22:39;99814.81;;;2.03;68.08
10587;BME280;5341;47.606;7.576;2024-01-11T14:25:07;99810.38;;;2.04;68.43
10587;BME280;5341;47.606;7.576;2024-01-11T14:27:36;99814.81;;;2.03;68.30
10587;BME280;5341;47.606;7.576;2024-01-11T14:30:05;99824.41;;;2.04;68.35
10587;BME280;5341;47.606;7.576;2024-01-11T14:32:33;99827.06;;;2.04;68.23
10587;BME280;5341;47.606;7.576;2024-01-11T14:35:04;99824.53;;;2.03;67.88
10587;BME280;5341;47.606;7.576;2024-01-11T14:37:33;99839.50;;;2.02;68.07
10587;BME280;5341;47.606;7.576;2024-01-11T14:40:01;99837.81;;;2.01;68.09
10587;BME280;5341;47.606;7.576;2024-01-11T14:42:29;99835.19;;;2.01;67.88
10587;BME280;5341;47.606;7.576;2024-01-11T14:44:56;99842.97;;;2.03;68.23
10587;BME280;5341;47.606;7.576;2024-01-11T14:47:24;99846.47;;;2.03;68.02
10587;BME280;5341;47.606;7.576;2024-01-11T14:49:51;99847.31;;;2.04;68.05
10587;BME280;5341;47.606;7.576;2024-01-11T14:52:20;99841.19;;;2.03;68.01
10587;BME280;5341;47.606;7.576;2024-01-11T14:54:47;99851.84;;;2.02;67.97
10587;BME280;5341;47.606;7.576;2024-01-11T14:57:15;99844.78;;;2.02;67.74
10587;BME280;5341;47.606;7.576;2024-01-11T14:59:43;99847.41;;;2.02;67.63
10587;BME280;5341;47.606;7.576;2024-01-11T15:02:11;99850.06;;;2.02;67.92
10587;BME280;5341;47.606;7.576;2024-01-11T15:04:39;99850.91;;;2.03;67.89
10587;BME280;5341;47.606;7.576;2024-01-11T15:07:06;99851.75;;;2.03;67.75
10587;BME280;5341;47.606;7.576;2024-01-11T15:09:36;99852.59;;;2.04;67.74
10587;BME280;5341;47.606;7.576;2024-01-11T15:12:04;99849.00;;;2.05;67.52
10587;BME280;5341;47.606;7.576;2024-01-11T15:14:31;99856.06;;;2.04;67.81
10587;BME280;5341;47.606;7.576;2024-01-11T15:16:58;99856.00;;;2.06;67.77
10587;BME280;5341;47.606;7.576;2024-01-11T15:19:28;99853.38;;;2.06;67.55
10587;BME280;5341;47.606;7.576;2024-01-11T15:21:56;99855.06;;;2.07;67.45
10587;BME280;5341;47.606;7.576;2024-01-11T15:24:24;99848.81;;;2.08;67.33
10587;BME280;5341;47.606;7.576;2024-01-11T15:26:55;99857.59;;;2.09;67.35
10587;BME280;5341;47.606;7.576;2024-01-11T15:29:22;99852.31;;;2.09;67.68
10587;BME280;5341;47.606;7.576;2024-01-11T15:31:50;99855.78;;;2.09;67.66
10587;BME280;5341;47.606;7.576;2024-01-11T15:34:18;99858.44;;;2.09;67.52
10587;BME280;5341;47.606;7.576;2024-01-11T15:36:45;99870.56;;;2.12;67.60
10587;BME280;5341;47.606;7.576;2024-01-11T15:39:13;99872.34;;;2.11;67.13
10587;BME280;5341;47.606;7.576;2024-01-11T15:41:40;99875.94;;;2.10;67.45
10587;BME280;5341;47.606;7.576;2024-01-11T15:44:09;99883.00;;;2.10;67.23
10587;BME280;5341;47.606;7.576;2024-01-11T15:46:37;99886.59;;;2.09;67.20
10587;BME280;5341;47.606;7.576;2024-01-11T15:49:04;99887.56;;;2.08;66.91
10587;BME280;5341;47.606;7.576;2024-01-11T17:02:14;99955.06;;;-0.07;73.81
10587;BME280;5341;47.606;7.576;2024-01-11T17:04:41;99955.22;;;0.06;73.96
10587;BME280;5341;47.606;7.576;2024-01-11T17:07:09;99965.56;;;0.25;74.05
10587;BME280;5341;47.606;7.576;2024-01-11T17:09:36;99960.91;;;0.44;74.06
10587;BME280;5341;47.606;7.576;2024-01-11T17:12:05;99968.59;;;0.63;73.88
10587;BME280;5341;47.606;7.576;2024-01-11T17:14:32;99961.38;;;0.81;73.37
10587;BME280;5341;47.606;7.576;2024-01-11T17:17:00;99958.50;;;1.00;73.54
10587;BME280;5341;47.606;7.576;2024-01-11T17:19:29;99964.53;;;1.16;73.01
10587;BME280;5341;47.606;7.576;2024-01-11T17:21:56;99957.56;;;1.29;72.35
10587;BME280;5341;47.606;7.576;2024-01-11T17:24:24;99966.50;;;1.41;72.12
10587;BME280;5341;47.606;7.576;2024-01-11T17:26:51;99966.69;;;1.52;71.91
10587;BME280;5341;47.606;7.576;2024-01-11T17:29:18;99968.88;;;1.60;71.21
10587;BME280;5341;47.606;7.576;2024-01-11T17:31:46;99973.53;;;1.69;71.36
10587;BME280;5341;47.606;7.576;2024-01-11T17:34:14;99970.53;;;1.75;70.94
10587;BME280;5341;47.606;7.576;2024-01-11T17:36:43;99968.44;;;1.80;70.74
10587;BME280;5341;47.606;7.576;2024-01-11T17:39:10;99976.09;;;1.85;70.38
10587;BME280;5341;47.606;7.576;2024-01-11T17:41:38;99966.91;;;1.90;70.33
10587;BME280;5341;47.606;7.576;2024-01-11T17:44:07;99975.56;;;1.92;69.96
10587;BME280;5341;47.606;7.576;2024-01-11T17:46:34;99973.63;;;1.96;69.82
10587;BME280;5341;47.606;7.576;2024-01-11T17:49:01;99977.84;;;1.98;69.29
10587;BME280;5341;47.606;7.576;2024-01-11T17:51:29;99982.06;;;2.01;69.38
10587;BME280;5341;47.606;7.576;2024-01-11T17:53:59;99990.63;;;2.04;68.99
10587;BME280;5341;47.606;7.576;2024-01-11T17:56:26;99983.56;;;2.05;68.94
10587;BME280;5341;47.606;7.576;2024-01-11T17:58:54;99986.13;;;2.07;69.03
10587;BME280;5341;47.606;7.576;2024-01-11T18:01:31;99985.19;;;2.08;68.91
10587;BME280;5341;47.606;7.576;2024-01-11T18:04:04;99993.94;;;2.08;68.57
10587;BME280;5341;47.606;7.576;2024-01-11T18:06:32;100004.38;;;2.10;68.43
10587;BME280;5341;47.606;7.576;2024-01-11T18:09:01;99999.09;;;2.10;68.84
10587;BME280;5341;47.606;7.576;2024-01-11T18:11:29;99996.38;;;2.11;68.48
10587;BME280;5341;47.606;7.576;2024-01-11T18:13:57;99991.94;;;2.12;68.03
10587;BME280;5341;47.606;7.576;2024-01-11T18:16:25;99991.94;;;2.12;68.06
10587;BME280;5341;47.606;7.576;2024-01-11T18:18:52;99998.91;;;2.13;68.34
10587;BME280;5341;47.606;7.576;2024-01-11T18:21:20;99992.69;;;2.14;68.64
10587;BME280;5341;47.606;7.576;2024-01-11T18:23:48;99981.28;;;2.13;68.14
10587;BME280;5341;47.606;7.576;2024-01-11T18:26:17;99984.66;;;2.15;67.64
10587;BME280;5341;47.606;7.576;2024-01-11T18:28:45;99994.38;;;2.15;67.68
10587;BME280;5341;47.606;7.576;2024-01-11T18:31:15;99989.00;;;2.16;67.73
10587;BME280;5341;47.606;7.576;2024-01-11T18:33:43;99994.28;;;2.16;67.69
10587;BME280;5341;47.606;7.576;2024-01-11T18:36:11;99979.28;;;2.17;67.71
10587;BME280;5341;47.606;7.576;2024-01-11T18:38:39;99990.63;;;2.19;67.64
10587;BME280;5341;47.606;7.576;2024-01-11T18:41:07;99984.50;;;2.18;67.29
10587;BME280;5341;47.606;7.576;2024-01-11T18:43:36;99984.50;;;2.18;67.25
10587;BME280;5341;47.606;7.576;2024-01-11T18:46:04;99989.75;;;2.18;67.42
10587;BME280;5341;47.606;7.576;2024-01-11T18:48:32;100004.66;;;2.19;67.44
10587;BME280;5341;47.606;7.576;2024-01-11T18:51:02;100001.16;;;2.19;67.55
10587;BME280;5341;47.606;7.576;2024-01-11T18:53:32;100000.22;;;2.20;67.76
10587;BME280;5341;47.606;7.576;2024-01-11T18:56:00;99998.53;;;2.19;67.44
10587;BME280;5341;47.606;7.576;2024-01-11T18:58:29;100004.72;;;2.18;67.20
10587;BME280;5341;47.606;7.576;2024-01-11T19:00:58;100002.00;;;2.19;66.96
10587;BME280;5341;47.606;7.576;2024-01-11T19:03:25;100009.94;;;2.19;67.13
10587;BME280;5341;47.606;7.576;2024-01-11T19:05:52;100015.22;;;2.19;67.37
10587;BME280;5341;47.606;7.576;2024-01-11T19:08:20;100009.81;;;2.21;67.04
10587;BME280;5341;47.606;7.576;2024-01-11T19:10:47;100012.47;;;2.21;67.34
10587;BME280;5341;47.606;7.576;2024-01-11T19:13:15;100011.63;;;2.20;67.48
10587;BME280;5341;47.606;7.576;2024-01-11T19:15:42;100011.63;;;2.20;67.01
10587;BME280;5341;47.606;7.576;2024-01-11T19:18:11;100021.34;;;2.20;67.18
10587;BME280;5341;47.606;7.576;2024-01-11T19:20:39;100026.59;;;2.20;67.25
10587;BME280;5341;47.606;7.576;2024-01-11T19:23:07;100023.13;;;2.19;66.94
10587;BME280;5341;47.606;7.576;2024-01-11T19:25:34;100023.97;;;2.20;67.42
10587;BME280;5341;47.606;7.576;2024-01-11T19:28:02;100018.69;;;2.20;67.20
10587;BME280;5341;47.606;7.576;2024-01-11T19:30:29;100013.41;;;2.20;67.41
10587;BME280;5341;47.606;7.576;2024-01-11T19:32:57;100020.47;;;2.19;66.99
10587;BME280;5341;47.606;7.576;2024-01-11T19:35:29;100012.56;;;2.19;67.02
10587;BME280;5341;47.606;7.576;2024-01-11T19:37:56;100012.63;;;2.18;67.02
10587;BME280;5341;47.606;7.576;2024-01-11T19:40:23;100024.06;;;2.18;67.33
10587;BME280;5341;47.606;7.576;2024-01-11T19:42:51;100014.44;;;2.17;67.24
10587;BME280;5341;47.606;7.576;2024-01-11T19:45:18;100020.56;;;2.18;66.97
10587;BME280;5341;47.606;7.576;2024-01-11T19:47:46;100017.06;;;2.17;67.10
10587;BME280;5341;47.606;7.576;2024-01-11T19:50:13;100010.88;;;2.18;67.17
10587;BME280;5341;47.606;7.576;2024-01-11T19:52:42;100015.28;;;2.18;66.97
10587;BME280;5341;47.606;7.576;2024-01-11T19:55:11;100015.38;;;2.16;67.37
10587;BME280;5341;47.606;7.576;2024-01-11T19:57:38;100023.28;;;2.16;67.35
10587;BME280;5341;47.606;7.576;2024-01-11T20:00:06;100033.00;;;2.16;67.36
10587;BME280;5341;47.606;7.576;2024-01-11T20:02:38;100035.66;;;2.16;66.84
10587;BME280;5341;47.606;7.576;2024-01-11T20:05:06;100048.00;;;2.15;67.48
10587;BME280;5341;47.606;7.576;2024-01-11T20:07:33;100053.28;;;2.15;66.97
10587;BME280;5341;47.606;7.576;2024-01-11T20:10:03;100066.47;;;2.15;67.36
10587;BME280;5341;47.606;7.576;2024-01-11T20:12:30;100062.97;;;2.15;67.24
10587;BME280;5341;47.606;7.576;2024-01-11T20:14:58;100062.03;;;2.16;67.23
10587;BME280;5341;47.606;7.576;2024-01-11T20:17:27;100058.53;;;2.15;67.42
10587;BME280;5341;47.606;7.576;2024-01-11T20:19:55;100043.56;;;2.16;67.27
10587;BME280;5341;47.606;7.576;2024-01-11T20:22:23;100059.41;;;2.16;66.90
10587;BME280;5341;47.606;7.576;2024-01-11T20:24:50;100057.69;;;2.15;67.19
10587;BME280;5341;47.606;7.576;2024-01-11T20:27:19;100062.97;;;2.15;66.83
10587;BME280;5341;47.606;7.576;2024-01-11T20:29:46;100066.56;;;2.14;67.22
10587;BME280;5341;47.606;7.576;2024-01-11T20:32:14;100057.81;;;2.13;67.22
10587;BME280;5341;47.606;7.576;2024-01-11T20:34:41;100064.03;;;2.12;67.23
10587;BME280;5341;47.606;7.576;2024-01-11T20:37:09;100056.13;;;2.12;66.84
10587;BME280;5341;47.606;7.576;2024-01-11T20:39:36;100040.38;;;2.11;66.78
10587;BME280;5341;47.606;7.576;2024-01-11T20:42:06;100050.09;;;2.10;66.99
10587;BME280;5341;47.606;7.576;2024-01-11T20:44:37;100060.53;;;2.12;67.12
10587;BME280;5341;47.606;7.576;2024-01-11T20:47:05;100053.56;;;2.11;67.11
10587;BME280;5341;47.606;7.576;2024-01-11T20:49:32;100050.84;;;2.12;66.98
10587;BME280;5341;47.606;7.576;2024-01-11T20:52:00;100049.88;;;2.13;66.99
10587;BME280;5341;47.606;7.576;2024-01-11T20:54:27;100050.72;;;2.14;66.87
10587;BME280;5341;47.606;7.576;2024-01-11T20:56:55;100058.66;;;2.14;66.49
10587;BME280;5341;47.606;7.576;2024-01-11T20:59:23;100054.22;;;2.14;66.53
10587;BME280;5341;47.606;7.576;2024-01-11T21:01:51;100053.28;;;2.15;66.71
10587;BME280;5341;47.606;7.576;2024-01-11T21:04:20;100049.78;;;2.15;66.79
10587;BME280;5341;47.606;7.576;2024-01-11T21:06:47;100043.56;;;2.16;66.56
10587;BME280;5341;47.606;7.576;2024-01-11T21:09:15;100056.75;;;2.16;66.25
10587;BME280;5341;47.606;7.576;2024-01-11T21:11:42;100062.03;;;2.16;66.53
10587;BME280;5341;47.606;7.576;2024-01-11T21:14:10;100062.88;;;2.16;66.32
10587;BME280;5341;47.606;7.576;2024-01-11T21:16:37;100056.75;;;2.16;66.12
10587;BME280;5341;47.606;7.576;2024-01-11T21:19:06;100061.09;;;2.17;66.48
10587;BME280;5341;47.606;7.576;2024-01-11T21:21:38;100061.09;;;2.17;66.45
10587;BME280;5341;47.606;7.576;2024-01-11T21:24:06;100060.25;;;2.16;66.48
10587;BME280;5341;47.606;7.576;2024-01-11T21:26:33;100058.44;;;2.17;66.20
10587;BME280;5341;47.606;7.576;2024-01-11T21:29:01;100061.09;;;2.17;66.02
10587;BME280;5341;47.606;7.576;2024-01-11T21:31:29;100061.09;;;2.17;65.82
10587;BME280;5341;47.606;7.576;2024-01-11T21:33:58;100058.38;;;2.18;66.28
10587;BME280;5341;47.606;7.576;2024-01-11T21:36:28;100056.66;;;2.17;66.14
10587;BME280;5341;47.606;7.576;2024-01-11T21:38:58;100067.22;;;2.17;66.11
10587;BME280;5341;47.606;7.576;2024-01-11T21:41:28;100058.38;;;2.18;65.83
10587;BME280;5341;47.606;7.576;2024-01-11T21:43:56;100068.06;;;2.18;65.71
10587;BME280;5341;47.606;7.576;2024-01-11T21:46:24;100067.22;;;2.17;66.06
10587;BME280;5341;47.606;7.576;2024-01-11T21:48:52;100065.41;;;2.18;65.94
10587;BME280;5341;47.606;7.576;2024-01-11T21:51:20;100073.34;;;2.18;65.88
10587;BME280;5341;47.606;7.576;2024-01-11T21:53:49;100063.66;;;2.18;65.47
10587;BME280;5341;47.606;7.576;2024-01-11T21:56:22;100063.72;;;2.17;65.86
10587;BME280;5341;47.606;7.576;2024-01-11T21:58:50;100062.88;;;2.16;65.44
10587;BME280;5341;47.606;7.576;2024-01-11T22:01:17;100049.69;;;2.16;65.72
10587;BME280;5341;47.606;7.576;2024-01-11T22:03:45;100044.41;;;2.16;65.75
10587;BME280;5341;47.606;7.576;2024-01-11T22:06:13;100039.97;;;2.17;65.71
10587;BME280;5341;47.606;7.576;2024-01-11T22:08:41;100038.28;;;2.16;65.37
10587;BME280;5341;47.606;7.576;2024-01-11T22:11:10;100055.81;;;2.17;65.57
10587;BME280;5341;47.606;7.576;2024-01-11T22:13:37;100050.63;;;2.15;65.46
10587;BME280;5341;47.606;7.576;2024-01-11T22:16:05;100062.97;;;2.15;65.20
10587;BME280;5341;47.606;7.576;2024-01-11T22:18:33;100068.25;;;2.15;65.67
10587;BME280;5341;47.606;7.576;2024-01-11T22:21:01;100084.09;;;2.15;65.33
10587;BME280;5341;47.606;7.576;2024-01-11T22:23:30;100081.44;;;2.15;65.61
10587;BME280;5341;47.606;7.576;2024-01-11T22:25:58;100076.19;;;2.15;65.43
10587;BME280;5341;47.606;7.576;2024-01-11T22:28:27;100071.84;;;2.14;65.78
10587;BME280;5341;47.606;7.576;2024-01-11T22:30:54;100069.22;;;2.14;65.74
10587;BME280;5341;47.606;7.576;2024-01-11T22:33:22;100063.09;;;2.13;65.64
10587;BME280;5341;47.606;7.576;2024-01-11T22:35:49;100064.88;;;2.13;65.54
10587;BME280;5341;47.606;7.576;2024-01-11T22:38:16;100070.16;;;2.13;65.73
10587;BME280;5341;47.606;7.576;2024-01-11T22:40:44;100078.06;;;2.13;65.58
10587;BME280;5341;47.606;7.576;2024-01-11T22:43:13;100074.59;;;2.12;65.41
10587;BME280;5341;47.606;7.576;2024-01-11T22:45:42;100064.88;;;2.13;65.23
10587;BME280;5341;47.606;7.576;2024-01-11T22:48:10;100064.03;;;2.12;65.75
10587;BME280;5341;47.606;7.576;2024-01-11T22:50:37;100065.81;;;2.12;65.48
10587;BME280;5341;47.606;7.576;2024-01-11T22:53:05;100070.25;;;2.11;65.80
10587;BME280;5341;47.606;7.576;2024-01-11T22:55:32;100071.09;;;2.12;65.15
10587;BME280;5341;47.606;7.576;2024-01-11T22:57:59;100073.75;;;2.12;65.49
10587;BME280;5341;47.606;7.576;2024-01-11T23:00:27;100064.97;;;2.11;65.08
10587;BME280;5341;47.606;7.576;2024-01-11T23:02:56;100057.06;;;2.11;65.27
10587;BME280;5341;47.606;7.576;2024-01-11T23:05:24;100060.53;;;2.12;65.48
10587;BME280;5341;47.606;7.576;2024-01-11T23:07:52;100052.63;;;2.12;65.02
10587;BME280;5341;47.606;7.576;2024-01-11T23:10:20;100040.38;;;2.11;65.09
10587;BME280;5341;47.606;7.576;2024-01-11T23:12:47;100033.31;;;2.11;65.08
10587;BME280;5341;47.606;7.576;2024-01-11T23:15:15;100042.19;;;2.10;65.02
10587;BME280;5341;47.606;7.576;2024-01-11T23:17:42;100039.53;;;2.10;65.14
10587;BME280;5341;47.606;7.576;2024-01-11T23:20:12;100048.28;;;2.11;65.44
10587;BME280;5341;47.606;7.576;2024-01-11T23:22:40;100047.44;;;2.10;65.13
10587;BME280;5341;47.606;7.576;2024-01-11T23:25:14;100037.84;;;2.09;65.11
10587;BME280;5341;47.606;7.576;2024-01-11T23:27:42;100038.78;;;2.08;65.54
10587;BME280;5341;47.606;7.576;2024-01-11T23:30:10;100043.22;;;2.08;65.30
10587;BME280;5341;47.606;7.576;2024-01-11T23:32:37;100031.81;;;2.07;65.33
10587;BME280;5341;47.606;7.576;2024-01-11T23:35:05;100033.50;;;2.08;65.34
10587;BME280;5341;47.606;7.576;2024-01-11T23:37:35;100030.97;;;2.07;64.93
10587;BME280;5341;47.606;7.576;2024-01-11T23:40:05;100042.44;;;2.05;65.18
10587;BME280;5341;47.606;7.576;2024-01-11T23:42:34;100039.91;;;2.04;65.19
10587;BME280;5341;47.606;7.576;2024-01-11T23:45:02;100031.16;;;2.03;65.13
10587;BME280;5341;47.606;7.576;2024-01-11T23:47:30;100038.13;;;2.04;65.33
10587;BME280;5341;47.606;7.576;2024-01-11T23:49:59;100040.84;;;2.03;65.07
10587;BME280;5341;47.606;7.576;2024-01-11T23:52:27;100037.38;;;2.02;65.13
10587;BME280;5341;47.606;7.576;2024-01-11T23:54:56;100042.66;;;2.02;65.04
10587;BME280;5341;47.606;7.576;2024-01-11T23:57:24;100049.72;;;2.02;65.46
10587;BME280;5341;47.606;7.576;2024-01-11T23:59:51;100048.97;;;2.00;65.19
